sensor_id;sensor_type;location;lat;lon;timestamp;P1;durP1;ratioP1;P2;durP2;ratioP2
51654;SDS011;37732;53.106;7.030;2023-12-20T00:00:57;16.85;;;4.45;;
51654;SDS011;37732;53.106;7.030;2023-12-20T00:03:23;14.05;;;3.60;;
51654;SDS011;37732;53.106;7.030;2023-12-20T00:05:49;11.10;;;4.03;;
51654;SDS011;37732;53.106;7.030;2023-12-20T00:08:15;12.93;;;4.32;;
51654;SDS011;37732;53.106;7.030;2023-12-20T00:10:41;15.63;;;4.40;;
51654;SDS011;37732;53.106;7.030;2023-12-20T00:13:07;11.45;;;3.95;;
51654;SDS011;37732;53.106;7.030;2023-12-20T00:15:34;17.38;;;3.55;;
51654;SDS011;37732;53.106;7.030;2023-12-20T00:17:59;12.95;;;4.38;;
51654;SDS011;37732;53.106;7.030;2023-12-20T00:20:26;14.95;;;4.13;;
51654;SDS011;37732;53.106;7.030;2023-12-20T00:22:53;13.32;;;4.55;;
51654;SDS011;37732;53.106;7.030;2023-12-20T00:25:25;15.30;;;3.75;;
51654;SDS011;37732;53.106;7.030;2023-12-20T00:27:50;12.50;;;3.95;;
51654;SDS011;37732;53.106;7.030;2023-12-20T00:30:17;11.32;;;3.38;;
51654;SDS011;37732;53.106;7.030;2023-12-20T00:32:42;12.15;;;3.80;;
51654;SDS011;37732;53.106;7.030;2023-12-20T00:35:14;12.15;;;3.90;;
51654;SDS011;37732;53.106;7.030;2023-12-20T00:37:41;11.30;;;4.00;;
51654;SDS011;37732;53.106;7.030;2023-12-20T00:40:08;15.88;;;3.58;;
51654;SDS011;37732;53.106;7.030;2023-12-20T00:42:34;14.70;;;3.85;;
51654;SDS011;37732;53.106;7.030;2023-12-20T00:45:01;18.88;;;4.75;;
51654;SDS011;37732;53.106;7.030;2023-12-20T00:47:27;12.80;;;4.32;;
51654;SDS011;37732;53.106;7.030;2023-12-20T00:49:52;10.55;;;3.60;;
51654;SDS011;37732;53.106;7.030;2023-12-20T00:52:21;12.48;;;3.90;;
51654;SDS011;37732;53.106;7.030;2023-12-20T00:54:48;17.83;;;5.13;;
51654;SDS011;37732;53.106;7.030;2023-12-20T00:57:13;12.48;;;4.18;;
51654;SDS011;37732;53.106;7.030;2023-12-20T00:59:40;12.75;;;4.65;;
51654;SDS011;37732;53.106;7.030;2023-12-20T01:02:06;10.20;;;3.88;;
51654;SDS011;37732;53.106;7.030;2023-12-20T01:04:31;12.20;;;3.75;;
51654;SDS011;37732;53.106;7.030;2023-12-20T01:06:57;31.08;;;4.85;;
51654;SDS011;37732;53.106;7.030;2023-12-20T01:09:23;14.10;;;4.03;;
51654;SDS011;37732;53.106;7.030;2023-12-20T01:11:51;14.15;;;4.18;;
51654;SDS011;37732;53.106;7.030;2023-12-20T01:14:17;15.13;;;3.90;;
51654;SDS011;37732;53.106;7.030;2023-12-20T01:16:43;12.68;;;4.88;;
51654;SDS011;37732;53.106;7.030;2023-12-20T01:19:09;13.18;;;4.03;;
51654;SDS011;37732;53.106;7.030;2023-12-20T01:21:35;13.23;;;4.18;;
51654;SDS011;37732;53.106;7.030;2023-12-20T01:24:00;18.60;;;4.72;;
51654;SDS011;37732;53.106;7.030;2023-12-20T01:26:26;17.15;;;4.57;;
51654;SDS011;37732;53.106;7.030;2023-12-20T01:28:52;16.60;;;4.50;;
51654;SDS011;37732;53.106;7.030;2023-12-20T01:31:18;12.30;;;4.50;;
51654;SDS011;37732;53.106;7.030;2023-12-20T01:33:44;15.73;;;5.50;;
51654;SDS011;37732;53.106;7.030;2023-12-20T01:36:09;16.90;;;4.70;;
51654;SDS011;37732;53.106;7.030;2023-12-20T01:38:36;16.73;;;4.35;;
51654;SDS011;37732;53.106;7.030;2023-12-20T01:41:02;19.55;;;5.07;;
51654;SDS011;37732;53.106;7.030;2023-12-20T01:43:28;16.40;;;3.88;;
51654;SDS011;37732;53.106;7.030;2023-12-20T01:45:54;15.32;;;4.68;;
51654;SDS011;37732;53.106;7.030;2023-12-20T01:48:22;17.23;;;4.50;;
51654;SDS011;37732;53.106;7.030;2023-12-20T01:50:48;13.82;;;4.30;;
51654;SDS011;37732;53.106;7.030;2023-12-20T01:53:14;17.02;;;4.20;;
51654;SDS011;37732;53.106;7.030;2023-12-20T01:55:41;19.90;;;5.25;;
51654;SDS011;37732;53.106;7.030;2023-12-20T01:58:07;13.02;;;4.43;;
51654;SDS011;37732;53.106;7.030;2023-12-20T02:03:10;13.57;;;4.60;;
51654;SDS011;37732;53.106;7.030;2023-12-20T02:05:37;15.25;;;4.70;;
51654;SDS011;37732;53.106;7.030;2023-12-20T02:08:04;17.05;;;4.85;;
51654;SDS011;37732;53.106;7.030;2023-12-20T02:10:30;14.55;;;4.45;;
51654;SDS011;37732;53.106;7.030;2023-12-20T02:12:56;18.23;;;5.03;;
51654;SDS011;37732;53.106;7.030;2023-12-20T02:15:22;15.48;;;4.55;;
51654;SDS011;37732;53.106;7.030;2023-12-20T02:17:48;17.70;;;4.30;;
51654;SDS011;37732;53.106;7.030;2023-12-20T02:20:14;12.70;;;5.03;;
51654;SDS011;37732;53.106;7.030;2023-12-20T02:22:40;10.55;;;4.00;;
51654;SDS011;37732;53.106;7.030;2023-12-20T02:25:06;10.50;;;3.92;;
51654;SDS011;37732;53.106;7.030;2023-12-20T02:27:32;12.07;;;4.40;;
51654;SDS011;37732;53.106;7.030;2023-12-20T02:29:58;16.67;;;4.88;;
51654;SDS011;37732;53.106;7.030;2023-12-20T02:32:24;10.57;;;3.92;;
51654;SDS011;37732;53.106;7.030;2023-12-20T02:34:53;12.88;;;4.05;;
51654;SDS011;37732;53.106;7.030;2023-12-20T02:37:19;11.38;;;3.75;;
51654;SDS011;37732;53.106;7.030;2023-12-20T02:39:45;12.63;;;3.58;;
51654;SDS011;37732;53.106;7.030;2023-12-20T02:42:11;11.63;;;3.58;;
51654;SDS011;37732;53.106;7.030;2023-12-20T02:44:36;11.85;;;4.05;;
51654;SDS011;37732;53.106;7.030;2023-12-20T02:47:02;15.20;;;4.47;;
51654;SDS011;37732;53.106;7.030;2023-12-20T02:49:28;12.57;;;4.10;;
51654;SDS011;37732;53.106;7.030;2023-12-20T02:51:54;14.70;;;4.43;;
51654;SDS011;37732;53.106;7.030;2023-12-20T02:54:20;16.95;;;4.72;;
51654;SDS011;37732;53.106;7.030;2023-12-20T02:56:46;18.63;;;5.88;;
51654;SDS011;37732;53.106;7.030;2023-12-20T02:59:12;17.13;;;5.25;;
51654;SDS011;37732;53.106;7.030;2023-12-20T03:01:44;18.60;;;5.30;;
51654;SDS011;37732;53.106;7.030;2023-12-20T03:04:11;19.52;;;5.07;;
51654;SDS011;37732;53.106;7.030;2023-12-20T03:06:37;15.80;;;4.90;;
51654;SDS011;37732;53.106;7.030;2023-12-20T03:09:03;17.35;;;5.20;;
51654;SDS011;37732;53.106;7.030;2023-12-20T03:11:29;15.75;;;4.70;;
51654;SDS011;37732;53.106;7.030;2023-12-20T03:13:55;16.77;;;5.72;;
51654;SDS011;37732;53.106;7.030;2023-12-20T03:16:21;19.50;;;5.63;;
51654;SDS011;37732;53.106;7.030;2023-12-20T03:18:47;18.15;;;5.30;;
51654;SDS011;37732;53.106;7.030;2023-12-20T03:21:12;22.13;;;6.45;;
51654;SDS011;37732;53.106;7.030;2023-12-20T03:23:38;18.75;;;5.75;;
51654;SDS011;37732;53.106;7.030;2023-12-20T03:26:06;17.17;;;5.97;;
51654;SDS011;37732;53.106;7.030;2023-12-20T03:28:33;22.67;;;6.22;;
51654;SDS011;37732;53.106;7.030;2023-12-20T03:30:59;17.83;;;5.68;;
51654;SDS011;37732;53.106;7.030;2023-12-20T03:33:25;17.33;;;5.90;;
51654;SDS011;37732;53.106;7.030;2023-12-20T03:35:51;14.68;;;5.93;;
51654;SDS011;37732;53.106;7.030;2023-12-20T03:38:17;19.35;;;5.97;;
51654;SDS011;37732;53.106;7.030;2023-12-20T03:40:42;29.40;;;7.47;;
51654;SDS011;37732;53.106;7.030;2023-12-20T03:43:08;20.15;;;6.88;;
51654;SDS011;37732;53.106;7.030;2023-12-20T03:45:33;23.52;;;6.57;;
51654;SDS011;37732;53.106;7.030;2023-12-20T03:47:59;22.95;;;6.45;;
51654;SDS011;37732;53.106;7.030;2023-12-20T03:50:25;19.65;;;6.78;;
51654;SDS011;37732;53.106;7.030;2023-12-20T03:52:51;26.88;;;7.82;;
51654;SDS011;37732;53.106;7.030;2023-12-20T03:55:17;15.02;;;5.40;;
51654;SDS011;37732;53.106;7.030;2023-12-20T03:57:43;27.17;;;6.30;;
51654;SDS011;37732;53.106;7.030;2023-12-20T04:00:09;24.00;;;7.43;;
51654;SDS011;37732;53.106;7.030;2023-12-20T04:02:38;26.40;;;6.45;;
51654;SDS011;37732;53.106;7.030;2023-12-20T04:05:07;22.38;;;6.78;;
51654;SDS011;37732;53.106;7.030;2023-12-20T04:07:35;21.52;;;7.80;;
51654;SDS011;37732;53.106;7.030;2023-12-20T04:10:01;18.00;;;5.70;;
51654;SDS011;37732;53.106;7.030;2023-12-20T04:12:29;22.23;;;6.30;;
51654;SDS011;37732;53.106;7.030;2023-12-20T04:14:54;28.83;;;7.40;;
51654;SDS011;37732;53.106;7.030;2023-12-20T04:17:20;19.75;;;6.28;;
51654;SDS011;37732;53.106;7.030;2023-12-20T04:19:48;17.13;;;6.97;;
51654;SDS011;37732;53.106;7.030;2023-12-20T04:22:14;21.98;;;7.18;;
51654;SDS011;37732;53.106;7.030;2023-12-20T04:24:40;20.15;;;7.28;;
51654;SDS011;37732;53.106;7.030;2023-12-20T04:27:07;24.13;;;6.85;;
51654;SDS011;37732;53.106;7.030;2023-12-20T04:29:33;21.08;;;8.48;;
51654;SDS011;37732;53.106;7.030;2023-12-20T04:31:59;23.10;;;7.75;;
51654;SDS011;37732;53.106;7.030;2023-12-20T04:34:25;26.00;;;8.02;;
51654;SDS011;37732;53.106;7.030;2023-12-20T04:36:51;21.20;;;6.53;;
51654;SDS011;37732;53.106;7.030;2023-12-20T04:39:17;31.25;;;8.93;;
51654;SDS011;37732;53.106;7.030;2023-12-20T04:41:43;20.23;;;7.53;;
51654;SDS011;37732;53.106;7.030;2023-12-20T04:44:08;22.77;;;7.35;;
51654;SDS011;37732;53.106;7.030;2023-12-20T04:46:34;32.58;;;8.65;;
51654;SDS011;37732;53.106;7.030;2023-12-20T04:49:00;24.25;;;7.60;;
51654;SDS011;37732;53.106;7.030;2023-12-20T04:51:26;23.40;;;7.57;;
51654;SDS011;37732;53.106;7.030;2023-12-20T04:53:52;23.08;;;8.80;;
51654;SDS011;37732;53.106;7.030;2023-12-20T04:56:17;30.80;;;9.13;;
51654;SDS011;37732;53.106;7.030;2023-12-20T04:58:43;17.15;;;7.22;;
51654;SDS011;37732;53.106;7.030;2023-12-20T05:01:09;20.92;;;6.85;;
51654;SDS011;37732;53.106;7.030;2023-12-20T05:03:35;24.42;;;8.10;;
51654;SDS011;37732;53.106;7.030;2023-12-20T05:06:01;23.27;;;7.78;;
51654;SDS011;37732;53.106;7.030;2023-12-20T05:08:26;25.02;;;6.72;;
51654;SDS011;37732;53.106;7.030;2023-12-20T05:10:55;20.02;;;6.28;;
51654;SDS011;37732;53.106;7.030;2023-12-20T05:13:21;26.73;;;8.05;;
51654;SDS011;37732;53.106;7.030;2023-12-20T05:15:47;23.52;;;7.68;;
51654;SDS011;37732;53.106;7.030;2023-12-20T05:18:13;21.25;;;7.07;;
51654;SDS011;37732;53.106;7.030;2023-12-20T05:20:39;21.67;;;6.85;;
51654;SDS011;37732;53.106;7.030;2023-12-20T05:23:05;22.05;;;7.43;;
51654;SDS011;37732;53.106;7.030;2023-12-20T05:25:31;28.45;;;8.07;;
51654;SDS011;37732;53.106;7.030;2023-12-20T05:27:57;20.02;;;7.68;;
51654;SDS011;37732;53.106;7.030;2023-12-20T05:30:22;27.15;;;7.15;;
51654;SDS011;37732;53.106;7.030;2023-12-20T05:32:48;23.52;;;7.78;;
51654;SDS011;37732;53.106;7.030;2023-12-20T05:35:14;20.58;;;6.85;;
51654;SDS011;37732;53.106;7.030;2023-12-20T05:37:40;20.75;;;7.95;;
51654;SDS011;37732;53.106;7.030;2023-12-20T05:40:06;25.95;;;7.95;;
51654;SDS011;37732;53.106;7.030;2023-12-20T05:42:35;25.40;;;8.30;;
51654;SDS011;37732;53.106;7.030;2023-12-20T05:45:04;16.45;;;6.28;;
51654;SDS011;37732;53.106;7.030;2023-12-20T05:47:32;23.13;;;7.15;;
51654;SDS011;37732;53.106;7.030;2023-12-20T05:49:57;23.02;;;7.32;;
51654;SDS011;37732;53.106;7.030;2023-12-20T05:52:23;21.08;;;7.45;;
51654;SDS011;37732;53.106;7.030;2023-12-20T05:54:49;17.45;;;7.05;;
51654;SDS011;37732;53.106;7.030;2023-12-20T05:57:15;24.20;;;6.95;;
51654;SDS011;37732;53.106;7.030;2023-12-20T05:59:40;21.98;;;8.23;;
51654;SDS011;37732;53.106;7.030;2023-12-20T06:02:06;23.40;;;7.78;;
51654;SDS011;37732;53.106;7.030;2023-12-20T06:04:32;17.85;;;6.78;;
51654;SDS011;37732;53.106;7.030;2023-12-20T06:06:58;25.45;;;8.88;;
51654;SDS011;37732;53.106;7.030;2023-12-20T06:09:24;25.30;;;7.53;;
51654;SDS011;37732;53.106;7.030;2023-12-20T06:11:51;21.90;;;7.57;;
51654;SDS011;37732;53.106;7.030;2023-12-20T06:14:17;21.80;;;7.40;;
51654;SDS011;37732;53.106;7.030;2023-12-20T06:16:43;23.65;;;7.90;;
51654;SDS011;37732;53.106;7.030;2023-12-20T06:19:10;22.58;;;6.63;;
51654;SDS011;37732;53.106;7.030;2023-12-20T06:21:35;19.65;;;7.13;;
51654;SDS011;37732;53.106;7.030;2023-12-20T06:24:01;20.33;;;6.72;;
51654;SDS011;37732;53.106;7.030;2023-12-20T06:26:27;20.20;;;6.32;;
51654;SDS011;37732;53.106;7.030;2023-12-20T06:28:52;17.48;;;6.88;;
51654;SDS011;37732;53.106;7.030;2023-12-20T06:31:18;21.90;;;7.03;;
51654;SDS011;37732;53.106;7.030;2023-12-20T06:33:44;23.55;;;7.50;;
51654;SDS011;37732;53.106;7.030;2023-12-20T06:36:13;15.38;;;6.28;;
51654;SDS011;37732;53.106;7.030;2023-12-20T06:38:39;31.17;;;7.90;;
51654;SDS011;37732;53.106;7.030;2023-12-20T06:41:05;22.75;;;6.78;;
51654;SDS011;37732;53.106;7.030;2023-12-20T06:43:31;22.58;;;8.57;;
51654;SDS011;37732;53.106;7.030;2023-12-20T06:45:57;20.20;;;7.20;;
51654;SDS011;37732;53.106;7.030;2023-12-20T06:48:23;26.13;;;8.85;;
51654;SDS011;37732;53.106;7.030;2023-12-20T06:50:49;23.17;;;8.25;;
51654;SDS011;37732;53.106;7.030;2023-12-20T06:53:14;26.33;;;7.35;;
51654;SDS011;37732;53.106;7.030;2023-12-20T06:55:40;20.38;;;7.60;;
51654;SDS011;37732;53.106;7.030;2023-12-20T06:58:06;25.45;;;7.53;;
51654;SDS011;37732;53.106;7.030;2023-12-20T07:00:32;23.23;;;6.15;;
51654;SDS011;37732;53.106;7.030;2023-12-20T07:02:58;18.17;;;6.75;;
51654;SDS011;37732;53.106;7.030;2023-12-20T07:05:24;23.48;;;7.93;;
51654;SDS011;37732;53.106;7.030;2023-12-20T07:07:49;29.90;;;8.75;;
51654;SDS011;37732;53.106;7.030;2023-12-20T07:10:15;30.13;;;8.52;;
51654;SDS011;37732;53.106;7.030;2023-12-20T07:12:41;23.60;;;7.63;;
51654;SDS011;37732;53.106;7.030;2023-12-20T07:15:07;26.45;;;8.63;;
51654;SDS011;37732;53.106;7.030;2023-12-20T07:17:33;21.35;;;6.57;;
51654;SDS011;37732;53.106;7.030;2023-12-20T07:19:59;18.50;;;6.05;;
51654;SDS011;37732;53.106;7.030;2023-12-20T07:22:32;22.05;;;7.40;;
51654;SDS011;37732;53.106;7.030;2023-12-20T07:24:58;18.60;;;7.35;;
51654;SDS011;37732;53.106;7.030;2023-12-20T07:27:25;20.55;;;7.13;;
51654;SDS011;37732;53.106;7.030;2023-12-20T07:29:51;18.75;;;7.25;;
51654;SDS011;37732;53.106;7.030;2023-12-20T07:32:17;21.13;;;7.53;;
51654;SDS011;37732;53.106;7.030;2023-12-20T07:34:42;21.88;;;8.23;;
51654;SDS011;37732;53.106;7.030;2023-12-20T07:37:09;21.25;;;6.70;;
51654;SDS011;37732;53.106;7.030;2023-12-20T07:39:37;24.27;;;7.80;;
51654;SDS011;37732;53.106;7.030;2023-12-20T07:42:05;27.85;;;7.53;;
51654;SDS011;37732;53.106;7.030;2023-12-20T07:44:31;23.50;;;7.03;;
51654;SDS011;37732;53.106;7.030;2023-12-20T07:46:56;23.55;;;8.65;;
51654;SDS011;37732;53.106;7.030;2023-12-20T07:49:23;23.13;;;7.63;;
51654;SDS011;37732;53.106;7.030;2023-12-20T07:51:48;22.55;;;8.50;;
51654;SDS011;37732;53.106;7.030;2023-12-20T07:54:15;22.58;;;7.18;;
51654;SDS011;37732;53.106;7.030;2023-12-20T07:56:41;20.67;;;7.10;;
51654;SDS011;37732;53.106;7.030;2023-12-20T07:59:06;17.85;;;6.88;;
51654;SDS011;37732;53.106;7.030;2023-12-20T08:01:32;21.17;;;7.80;;
51654;SDS011;37732;53.106;7.030;2023-12-20T08:03:58;22.58;;;8.10;;
51654;SDS011;37732;53.106;7.030;2023-12-20T08:06:23;27.58;;;7.75;;
51654;SDS011;37732;53.106;7.030;2023-12-20T08:08:49;21.52;;;7.35;;
51654;SDS011;37732;53.106;7.030;2023-12-20T08:11:15;27.10;;;7.13;;
51654;SDS011;37732;53.106;7.030;2023-12-20T08:13:41;23.33;;;7.60;;
51654;SDS011;37732;53.106;7.030;2023-12-20T08:16:06;19.25;;;7.00;;
51654;SDS011;37732;53.106;7.030;2023-12-20T08:18:32;25.20;;;7.78;;
51654;SDS011;37732;53.106;7.030;2023-12-20T08:20:59;23.50;;;7.85;;
51654;SDS011;37732;53.106;7.030;2023-12-20T08:23:26;23.65;;;6.35;;
51654;SDS011;37732;53.106;7.030;2023-12-20T08:25:52;25.13;;;7.57;;
51654;SDS011;37732;53.106;7.030;2023-12-20T08:28:17;22.00;;;6.05;;
51654;SDS011;37732;53.106;7.030;2023-12-20T08:30:43;17.08;;;6.72;;
51654;SDS011;37732;53.106;7.030;2023-12-20T08:33:09;15.90;;;5.93;;
51654;SDS011;37732;53.106;7.030;2023-12-20T08:35:41;22.48;;;7.45;;
51654;SDS011;37732;53.106;7.030;2023-12-20T08:38:06;22.38;;;7.57;;
51654;SDS011;37732;53.106;7.030;2023-12-20T08:40:32;21.23;;;6.75;;
51654;SDS011;37732;53.106;7.030;2023-12-20T08:42:58;22.10;;;6.45;;
51654;SDS011;37732;53.106;7.030;2023-12-20T08:45:24;21.98;;;7.40;;
51654;SDS011;37732;53.106;7.030;2023-12-20T08:47:49;23.80;;;8.45;;
51654;SDS011;37732;53.106;7.030;2023-12-20T08:50:15;21.35;;;7.32;;
51654;SDS011;37732;53.106;7.030;2023-12-20T08:52:41;26.98;;;7.38;;
51654;SDS011;37732;53.106;7.030;2023-12-20T08:55:07;17.20;;;6.78;;
51654;SDS011;37732;53.106;7.030;2023-12-20T08:57:33;20.33;;;7.55;;
51654;SDS011;37732;53.106;7.030;2023-12-20T08:59:59;16.10;;;5.90;;
51654;SDS011;37732;53.106;7.030;2023-12-20T09:02:24;18.50;;;6.28;;
51654;SDS011;37732;53.106;7.030;2023-12-20T09:04:50;6.65;;;2.78;;
51654;SDS011;37732;53.106;7.030;2023-12-20T09:07:23;6.55;;;2.28;;
51654;SDS011;37732;53.106;7.030;2023-12-20T09:09:49;5.70;;;1.90;;
51654;SDS011;37732;53.106;7.030;2023-12-20T09:12:15;5.53;;;1.80;;
51654;SDS011;37732;53.106;7.030;2023-12-20T09:14:42;8.73;;;2.33;;
51654;SDS011;37732;53.106;7.030;2023-12-20T09:17:07;7.53;;;1.75;;
51654;SDS011;37732;53.106;7.030;2023-12-20T09:19:34;7.88;;;1.92;;
51654;SDS011;37732;53.106;7.030;2023-12-20T09:21:59;6.55;;;2.25;;
51654;SDS011;37732;53.106;7.030;2023-12-20T09:24:26;8.93;;;2.17;;
51654;SDS011;37732;53.106;7.030;2023-12-20T09:26:51;6.85;;;1.90;;
51654;SDS011;37732;53.106;7.030;2023-12-20T09:29:17;10.23;;;1.92;;
51654;SDS011;37732;53.106;7.030;2023-12-20T09:31:43;9.63;;;2.30;;
51654;SDS011;37732;53.106;7.030;2023-12-20T09:34:11;9.70;;;1.95;;
51654;SDS011;37732;53.106;7.030;2023-12-20T09:36:37;9.65;;;2.33;;
51654;SDS011;37732;53.106;7.030;2023-12-20T09:39:05;6.47;;;2.45;;
51654;SDS011;37732;53.106;7.030;2023-12-20T09:41:31;6.95;;;2.25;;
51654;SDS011;37732;53.106;7.030;2023-12-20T09:44:05;4.80;;;2.03;;
51654;SDS011;37732;53.106;7.030;2023-12-20T09:46:34;7.43;;;2.45;;
51654;SDS011;37732;53.106;7.030;2023-12-20T09:49:04;5.15;;;2.00;;
51654;SDS011;37732;53.106;7.030;2023-12-20T09:51:31;6.35;;;2.10;;
51654;SDS011;37732;53.106;7.030;2023-12-20T09:53:57;7.70;;;2.00;;
51654;SDS011;37732;53.106;7.030;2023-12-20T09:56:24;9.27;;;2.25;;
51654;SDS011;37732;53.106;7.030;2023-12-20T09:58:50;8.80;;;2.30;;
51654;SDS011;37732;53.106;7.030;2023-12-20T10:01:16;5.28;;;1.55;;
51654;SDS011;37732;53.106;7.030;2023-12-20T10:03:43;10.13;;;2.78;;
51654;SDS011;37732;53.106;7.030;2023-12-20T10:06:09;8.77;;;1.88;;
51654;SDS011;37732;53.106;7.030;2023-12-20T10:08:35;5.50;;;1.80;;
51654;SDS011;37732;53.106;7.030;2023-12-20T10:11:01;8.48;;;2.33;;
51654;SDS011;37732;53.106;7.030;2023-12-20T10:13:29;7.43;;;2.08;;
51654;SDS011;37732;53.106;7.030;2023-12-20T10:15:55;7.25;;;1.83;;
51654;SDS011;37732;53.106;7.030;2023-12-20T10:18:21;8.18;;;2.50;;
51654;SDS011;37732;53.106;7.030;2023-12-20T10:20:46;7.80;;;2.60;;
51654;SDS011;37732;53.106;7.030;2023-12-20T10:23:13;7.82;;;2.30;;
51654;SDS011;37732;53.106;7.030;2023-12-20T10:25:40;8.10;;;2.53;;
51654;SDS011;37732;53.106;7.030;2023-12-20T10:28:12;12.35;;;3.38;;
51654;SDS011;37732;53.106;7.030;2023-12-20T10:30:42;5.93;;;1.85;;
51654;SDS011;37732;53.106;7.030;2023-12-20T10:33:08;7.57;;;2.90;;
51654;SDS011;37732;53.106;7.030;2023-12-20T10:35:38;5.90;;;2.05;;
51654;SDS011;37732;53.106;7.030;2023-12-20T10:38:05;6.03;;;1.77;;
51654;SDS011;37732;53.106;7.030;2023-12-20T10:40:34;10.13;;;2.85;;
51654;SDS011;37732;53.106;7.030;2023-12-20T10:43:04;8.50;;;2.72;;
51654;SDS011;37732;53.106;7.030;2023-12-20T10:45:30;8.10;;;2.55;;
51654;SDS011;37732;53.106;7.030;2023-12-20T10:47:56;12.00;;;2.97;;
51654;SDS011;37732;53.106;7.030;2023-12-20T10:50:26;5.55;;;2.22;;
51654;SDS011;37732;53.106;7.030;2023-12-20T10:52:54;10.73;;;2.85;;
51654;SDS011;37732;53.106;7.030;2023-12-20T10:55:24;10.23;;;2.90;;
51654;SDS011;37732;53.106;7.030;2023-12-20T10:58:06;6.82;;;2.20;;
51654;SDS011;37732;53.106;7.030;2023-12-20T11:00:35;10.48;;;3.30;;
51654;SDS011;37732;53.106;7.030;2023-12-20T11:03:08;8.18;;;2.72;;
51654;SDS011;37732;53.106;7.030;2023-12-20T11:08:28;10.90;;;3.50;;
51654;SDS011;37732;53.106;7.030;2023-12-20T11:13:32;9.55;;;2.65;;
51654;SDS011;37732;53.106;7.030;2023-12-20T11:16:02;10.52;;;2.75;;
51654;SDS011;37732;53.106;7.030;2023-12-20T11:18:31;7.40;;;2.60;;
51654;SDS011;37732;53.106;7.030;2023-12-20T11:21:00;11.18;;;3.33;;
51654;SDS011;37732;53.106;7.030;2023-12-20T11:23:29;14.40;;;3.25;;
51654;SDS011;37732;53.106;7.030;2023-12-20T11:25:56;8.63;;;3.30;;
51654;SDS011;37732;53.106;7.030;2023-12-20T11:28:25;8.60;;;3.42;;
51654;SDS011;37732;53.106;7.030;2023-12-20T11:30:55;17.48;;;3.80;;
51654;SDS011;37732;53.106;7.030;2023-12-20T11:33:27;13.02;;;3.83;;
51654;SDS011;37732;53.106;7.030;2023-12-20T11:35:56;11.40;;;3.05;;
51654;SDS011;37732;53.106;7.030;2023-12-20T11:38:24;11.07;;;3.05;;
51654;SDS011;37732;53.106;7.030;2023-12-20T11:40:50;13.40;;;4.55;;
51654;SDS011;37732;53.106;7.030;2023-12-20T11:46:19;13.55;;;3.20;;
51654;SDS011;37732;53.106;7.030;2023-12-20T11:48:45;16.85;;;4.47;;
51654;SDS011;37732;53.106;7.030;2023-12-20T11:51:13;10.48;;;3.35;;
51654;SDS011;37732;53.106;7.030;2023-12-20T11:53:39;10.45;;;3.33;;
51654;SDS011;37732;53.106;7.030;2023-12-20T11:56:06;12.35;;;3.97;;
51654;SDS011;37732;53.106;7.030;2023-12-20T11:58:32;11.32;;;3.97;;
51654;SDS011;37732;53.106;7.030;2023-12-20T12:00:58;16.98;;;3.78;;
51654;SDS011;37732;53.106;7.030;2023-12-20T12:03:24;10.18;;;4.18;;
51654;SDS011;37732;53.106;7.030;2023-12-20T12:05:50;14.27;;;4.30;;
51654;SDS011;37732;53.106;7.030;2023-12-20T12:08:16;16.55;;;4.50;;
51654;SDS011;37732;53.106;7.030;2023-12-20T12:10:43;13.13;;;3.88;;
51654;SDS011;37732;53.106;7.030;2023-12-20T12:13:09;16.50;;;4.40;;
51654;SDS011;37732;53.106;7.030;2023-12-20T12:15:35;14.05;;;3.78;;
51654;SDS011;37732;53.106;7.030;2023-12-20T12:18:01;12.82;;;5.18;;
51654;SDS011;37732;53.106;7.030;2023-12-20T12:20:27;11.95;;;4.03;;
51654;SDS011;37732;53.106;7.030;2023-12-20T12:23:12;12.45;;;3.97;;
51654;SDS011;37732;53.106;7.030;2023-12-20T12:25:37;13.70;;;4.03;;
51654;SDS011;37732;53.106;7.030;2023-12-20T12:28:03;10.32;;;4.00;;
51654;SDS011;37732;53.106;7.030;2023-12-20T12:30:29;11.15;;;3.72;;
51654;SDS011;37732;53.106;7.030;2023-12-20T12:32:55;17.80;;;3.88;;
51654;SDS011;37732;53.106;7.030;2023-12-20T12:35:22;11.27;;;4.85;;
51654;SDS011;37732;53.106;7.030;2023-12-20T12:37:48;11.18;;;3.80;;
51654;SDS011;37732;53.106;7.030;2023-12-20T12:40:15;16.20;;;4.22;;
51654;SDS011;37732;53.106;7.030;2023-12-20T12:42:43;13.50;;;4.20;;
51654;SDS011;37732;53.106;7.030;2023-12-20T12:45:10;9.10;;;3.40;;
51654;SDS011;37732;53.106;7.030;2023-12-20T12:47:36;11.65;;;3.65;;
51654;SDS011;37732;53.106;7.030;2023-12-20T12:50:03;12.15;;;4.18;;
51654;SDS011;37732;53.106;7.030;2023-12-20T12:52:30;12.23;;;4.28;;
51654;SDS011;37732;53.106;7.030;2023-12-20T12:54:56;12.93;;;5.07;;
51654;SDS011;37732;53.106;7.030;2023-12-20T12:57:22;14.55;;;4.15;;
51654;SDS011;37732;53.106;7.030;2023-12-20T12:59:49;11.80;;;3.38;;
51654;SDS011;37732;53.106;7.030;2023-12-20T13:02:15;12.32;;;3.85;;
51654;SDS011;37732;53.106;7.030;2023-12-20T13:04:41;12.80;;;3.75;;
51654;SDS011;37732;53.106;7.030;2023-12-20T13:07:08;12.85;;;3.72;;
51654;SDS011;37732;53.106;7.030;2023-12-20T13:09:37;11.50;;;3.60;;
51654;SDS011;37732;53.106;7.030;2023-12-20T13:12:03;10.30;;;3.25;;
51654;SDS011;37732;53.106;7.030;2023-12-20T13:14:32;9.10;;;2.80;;
51654;SDS011;37732;53.106;7.030;2023-12-20T13:16:59;11.95;;;4.43;;
51654;SDS011;37732;53.106;7.030;2023-12-20T13:19:25;11.50;;;3.65;;
51654;SDS011;37732;53.106;7.030;2023-12-20T13:21:51;12.27;;;3.72;;
51654;SDS011;37732;53.106;7.030;2023-12-20T13:24:16;11.77;;;4.20;;
51654;SDS011;37732;53.106;7.030;2023-12-20T13:26:43;12.57;;;3.67;;
51654;SDS011;37732;53.106;7.030;2023-12-20T13:29:09;11.77;;;3.95;;
51654;SDS011;37732;53.106;7.030;2023-12-20T13:31:35;11.88;;;3.60;;
51654;SDS011;37732;53.106;7.030;2023-12-20T13:34:01;12.32;;;3.38;;
51654;SDS011;37732;53.106;7.030;2023-12-20T13:36:27;15.52;;;4.45;;
51654;SDS011;37732;53.106;7.030;2023-12-20T13:38:53;12.82;;;4.07;;
51654;SDS011;37732;53.106;7.030;2023-12-20T13:41:19;14.95;;;4.80;;
51654;SDS011;37732;53.106;7.030;2023-12-20T13:43:45;17.30;;;4.50;;
51654;SDS011;37732;53.106;7.030;2023-12-20T13:46:10;11.70;;;3.95;;
51654;SDS011;37732;53.106;7.030;2023-12-20T13:48:36;13.32;;;4.45;;
51654;SDS011;37732;53.106;7.030;2023-12-20T13:51:03;15.52;;;4.80;;
51654;SDS011;37732;53.106;7.030;2023-12-20T13:53:28;12.07;;;4.28;;
51654;SDS011;37732;53.106;7.030;2023-12-20T13:55:54;15.95;;;4.53;;
51654;SDS011;37732;53.106;7.030;2023-12-20T13:58:20;17.45;;;4.40;;
51654;SDS011;37732;53.106;7.030;2023-12-20T14:00:46;12.95;;;4.30;;
51654;SDS011;37732;53.106;7.030;2023-12-20T14:03:11;14.80;;;4.82;;
51654;SDS011;37732;53.106;7.030;2023-12-20T14:05:37;14.30;;;3.95;;
51654;SDS011;37732;53.106;7.030;2023-12-20T14:08:03;11.73;;;4.00;;
51654;SDS011;37732;53.106;7.030;2023-12-20T14:10:29;13.40;;;3.50;;
51654;SDS011;37732;53.106;7.030;2023-12-20T14:12:55;11.40;;;3.50;;
51654;SDS011;37732;53.106;7.030;2023-12-20T14:15:21;13.25;;;3.47;;
51654;SDS011;37732;53.106;7.030;2023-12-20T14:17:50;13.13;;;3.97;;
51654;SDS011;37732;53.106;7.030;2023-12-20T14:20:16;10.82;;;3.67;;
51654;SDS011;37732;53.106;7.030;2023-12-20T14:22:43;9.38;;;3.42;;
51654;SDS011;37732;53.106;7.030;2023-12-20T14:25:12;10.35;;;3.72;;
51654;SDS011;37732;53.106;7.030;2023-12-20T14:27:42;8.85;;;3.30;;
51654;SDS011;37732;53.106;7.030;2023-12-20T14:30:08;10.90;;;2.88;;
51654;SDS011;37732;53.106;7.030;2023-12-20T14:32:35;11.65;;;3.10;;
51654;SDS011;37732;53.106;7.030;2023-12-20T14:35:07;9.10;;;3.08;;
51654;SDS011;37732;53.106;7.030;2023-12-20T14:37:33;8.43;;;2.78;;
51654;SDS011;37732;53.106;7.030;2023-12-20T14:40:00;8.98;;;3.08;;
51654;SDS011;37732;53.106;7.030;2023-12-20T14:42:26;10.23;;;2.70;;